Time;durP1;ratioP1;P1;durP2;ratioP2;P2;SDS_P1;SDS_P2;PMS_P1;PMS_P2;Temp;Humidity;BMP_temperature;BMP_pressure;BME280_temperature;BME280_humidity;BME280_pressure;Samples;Min_cycle;Max_cycle;Signal;HPM_P1;HPM_P2
2023/08/30 00:00:01;;;;;;;27.10;20.60;;;;;;;20.08;100.00;99519.17;106103;1264;97917;-86
2023/08/30 00:03:08;;;;;;;23.20;20.70;;;;;;;20.06;100.00;99528.15;106205;1260;97936;-85
2023/08/30 00:05:53;;;;;;;23.80;20.40;;;;;;;20.03;100.00;99533.75;106192;1260;95833;-87
2023/08/30 00:08:39;;;;;;;21.90;19.60;;;;;;;20.00;100.00;99535.77;106036;1266;102728;-87
2023/08/30 00:11:25;;;;;;;26.10;21.00;;;;;;;19.93;100.00;99534.20;106051;1260;99844;-88
2023/08/30 00:14:11;;;;;;;24.00;20.40;;;;;;;19.89;100.00;99533.33;105991;1259;99577;-88
2023/08/30 00:16:57;;;;;;;23.10;20.50;;;;;;;19.85;100.00;99533.23;106085;1260;97962;-88
2023/08/30 00:19:43;;;;;;;23.40;20.00;;;;;;;19.84;100.00;99532.58;105890;1260;97881;-88
2023/08/30 00:22:31;;;;;;;23.30;20.80;;;;;;;19.83;100.00;99533.95;106450;1261;102651;-87
2023/08/30 00:25:17;;;;;;;24.50;21.80;;;;;;;19.79;100.00;99536.48;106113;1266;99504;-85
2023/08/30 00:28:03;;;;;;;25.40;22.40;;;;;;;19.74;100.00;99534.98;106311;1264;98043;-86
2023/08/30 00:30:54;;;;;;;25.30;22.30;;;;;;;19.69;100.00;99538.77;106221;1260;97853;-87
2023/08/30 00:33:42;;;;;;;28.10;23.40;;;;;;;19.61;100.00;99542.30;106145;1263;97879;-87
2023/08/30 00:36:28;;;;;;;28.80;22.50;;;;;;;19.54;100.00;99548.27;105848;1261;101487;-87
2023/08/30 00:39:14;;;;;;;27.50;22.40;;;;;;;19.50;100.00;99553.00;106073;1260;99189;-87
2023/08/30 00:42:04;;;;;;;29.30;22.90;;;;;;;19.44;100.00;99551.59;106191;1261;99126;-88
2023/08/30 00:44:50;;;;;;;24.80;22.00;;;;;;;19.40;100.00;99552.17;105732;1266;312879;-88
2023/08/30 00:47:36;;;;;;;24.40;21.40;;;;;;;19.37;100.00;99549.67;106296;1261;98522;-86
2023/08/30 00:50:23;;;;;;;23.40;20.90;;;;;;;19.34;100.00;99548.84;106155;1260;102656;-86
2023/08/30 00:53:10;;;;;;;26.50;23.50;;;;;;;19.36;100.00;99551.28;106160;1260;99344;-87
2023/08/30 00:55:56;;;;;;;27.50;22.60;;;;;;;19.35;100.00;99552.74;106148;1260;98007;-87
2023/08/30 00:58:42;;;;;;;31.30;24.10;;;;;;;19.34;100.00;99557.42;106103;1262;97875;-87
2023/08/30 01:01:28;;;;;;;29.90;23.50;;;;;;;19.33;100.00;99556.80;106227;1260;96424;-86
2023/08/30 01:04:14;;;;;;;28.50;24.60;;;;;;;19.32;100.00;99550.11;106034;1264;101442;-89
2023/08/30 01:07:00;;;;;;;31.40;24.70;;;;;;;19.30;100.00;99549.89;106082;1261;99178;-87
2023/08/30 01:09:46;;;;;;;28.50;24.70;;;;;;;19.27;100.00;99549.45;106184;1260;99182;-87
2023/08/30 01:12:48;;;;;;;31.80;26.60;;;;;;;19.24;100.00;99551.47;106125;1267;98552;-87
2023/08/30 01:15:38;;;;;;;28.50;24.70;;;;;;;19.24;100.00;99550.11;106251;1266;98487;-87
2023/08/30 01:18:27;;;;;;;30.50;24.30;;;;;;;19.23;100.00;99554.00;105976;1260;102785;-87
2023/08/30 01:21:26;;;;;;;26.70;23.00;;;;;;;19.22;100.00;99545.91;106006;1260;100426;-86
2023/08/30 01:24:20;;;;;;;32.20;24.70;;;;;;;19.18;100.00;99547.21;106285;1261;98007;-86
2023/08/30 01:27:12;;;;;;;28.40;21.90;;;;;;;19.13;100.00;99551.54;105943;1261;97956;-86
2023/08/30 01:29:58;;;;;;;28.30;23.10;;;;;;;19.13;100.00;99552.23;106184;1260;98284;-87
2023/08/30 01:32:46;;;;;;;29.50;23.00;;;;;;;19.14;100.00;99545.68;106030;1265;101448;-86
2023/08/30 01:35:37;;;;;;;28.40;23.20;;;;;;;19.14;100.00;99542.24;106291;1267;100511;-87
2023/08/30 01:38:24;;;;;;;26.70;22.90;;;;;;;19.15;100.00;99545.83;106175;1261;108545;-87
2023/08/30 01:41:10;;;;;;;26.80;22.10;;;;;;;19.16;100.00;99546.94;106116;1263;97950;-88
2023/08/30 01:43:59;;;;;;;27.10;22.80;;;;;;;19.18;100.00;99544.27;106194;1263;98049;-86
2023/08/30 01:46:46;;;;;;;30.20;23.80;;;;;;;19.18;100.00;99544.48;106135;1266;102703;-89
2023/08/30 01:49:34;;;;;;;29.60;24.10;;;;;;;19.20;100.00;99540.31;106143;1267;100561;-87
2023/08/30 01:52:22;;;;;;;31.00;22.90;;;;;;;19.22;100.00;99536.84;106088;1261;98005;-87
2023/08/30 01:55:10;;;;;;;33.00;26.10;;;;;;;19.24;100.00;99538.48;106276;1261;97896;-86
2023/08/30 01:57:56;;;;;;;31.80;24.80;;;;;;;19.25;100.00;99538.77;106271;1263;96598;-87
2023/08/30 02:00:42;;;;;;;28.50;24.00;;;;;;;19.28;100.00;99540.77;106258;1263;102139;-87
2023/08/30 02:03:27;;;;;;;26.90;21.80;;;;;;;19.29;100.00;99538.21;106128;1260;99290;-87
2023/08/30 02:06:21;;;;;;;29.00;23.50;;;;;;;19.30;100.00;99531.81;105883;1261;99190;-89
2023/08/30 02:09:17;;;;;;;31.40;22.80;;;;;;;19.30;100.00;99514.48;106232;1261;98042;-87
2023/08/30 02:12:09;;;;;;;28.00;21.80;;;;;;;19.26;100.00;99496.57;106275;1260;95916;-87
2023/08/30 02:14:57;;;;;;;30.40;22.00;;;;;;;19.21;100.00;99491.89;106423;1260;102751;-87
2023/08/30 02:17:45;;;;;;;27.60;20.70;;;;;;;19.17;100.00;99491.18;106119;1260;99194;-87
2023/08/30 02:20:31;;;;;;;28.30;22.30;;;;;;;19.16;100.00;99491.71;106216;1261;99036;-86
2023/08/30 02:23:17;;;;;;;27.50;22.00;;;;;;;19.16;100.00;99491.39;105881;1261;98068;-87
2023/08/30 02:26:03;;;;;;;31.50;21.40;;;;;;;19.16;100.00;99491.61;106271;1261;96553;-87
2023/08/30 02:28:48;;;;;;;30.30;22.10;;;;;;;19.16;100.00;99490.36;106361;1267;102738;-87
2023/08/30 02:31:34;;;;;;;29.80;23.10;;;;;;;19.17;100.00;99485.80;106324;1260;99225;-87
2023/08/30 02:34:20;;;;;;;33.10;23.10;;;;;;;19.16;100.00;99481.99;106230;1260;99082;-86
2023/08/30 02:37:06;;;;;;;29.50;20.70;;;;;;;19.14;100.00;99477.86;106036;1261;99139;-88
2023/08/30 02:39:52;;;;;;;28.70;21.70;;;;;;;19.13;100.00;99478.08;106182;1261;97937;-87
2023/08/30 02:42:38;;;;;;;32.90;22.40;;;;;;;19.12;100.00;99477.33;106138;1261;102755;-87
2023/08/30 02:45:24;;;;;;;28.20;22.50;;;;;;;19.08;100.00;99472.48;106254;1260;99417;-87
2023/08/30 02:48:10;;;;;;;31.30;21.90;;;;;;;19.07;100.00;99474.00;106276;1261;99146;-87
2023/08/30 02:50:57;;;;;;;28.60;21.80;;;;;;;19.06;100.00;99470.69;106174;1261;98749;-87
2023/08/30 02:53:43;;;;;;;31.40;22.90;;;;;;;19.07;100.00;99465.48;106225;1264;98084;-86
2023/08/30 02:56:29;;;;;;;27.80;21.00;;;;;;;19.07;100.00;99456.45;106034;1261;102732;-88
2023/08/30 02:59:15;;;;;;;31.60;23.50;;;;;;;19.06;100.00;99452.33;106204;1260;101372;-87
2023/08/30 03:02:00;;;;;;;29.70;23.50;;;;;;;19.04;100.00;99444.69;106310;1264;99109;-88
2023/08/30 03:04:46;;;;;;;29.00;23.00;;;;;;;19.03;100.00;99445.60;106025;1261;98059;-87
2023/08/30 03:07:33;;;;;;;32.30;22.80;;;;;;;18.99;100.00;99449.19;106058;1261;97970;-87
2023/08/30 03:10:18;;;;;;;36.40;23.80;;;;;;;18.91;100.00;99453.61;106251;1261;101436;-88
2023/08/30 03:13:05;;;;;;;33.10;24.00;;;;;;;18.89;100.00;99445.41;106248;1261;99844;-86
2023/08/30 03:15:51;;;;;;;38.20;25.90;;;;;;;18.89;100.00;99440.64;106389;1261;99112;-87
2023/08/30 03:18:38;;;;;;;33.50;25.40;;;;;;;18.88;100.00;99443.99;106125;1261;97956;-89
2023/08/30 03:21:24;;;;;;;35.60;24.90;;;;;;;18.86;100.00;99445.57;106422;1261;98459;-86
2023/08/30 03:24:10;;;;;;;32.80;25.20;;;;;;;18.84;100.00;99449.16;106447;1265;101909;-86
2023/08/30 03:26:56;;;;;;;31.00;23.30;;;;;;;18.82;100.00;99448.13;106079;1260;99204;-87
2023/08/30 03:29:42;;;;;;;33.40;25.10;;;;;;;18.81;100.00;99444.81;106174;1266;99094;-87
2023/08/30 03:32:28;;;;;;;38.00;26.00;;;;;;;18.81;100.00;99436.94;106200;1267;97954;-86
2023/08/30 03:35:16;;;;;;;36.00;25.00;;;;;;;18.79;100.00;99431.51;106093;1261;97983;-86
2023/08/30 03:38:01;;;;;;;34.60;25.10;;;;;;;18.77;100.00;99431.61;106154;1260;110822;-87
2023/08/30 03:40:53;;;;;;;34.50;25.20;;;;;;;18.75;100.00;99429.05;106325;1263;99247;-87
2023/08/30 03:43:40;;;;;;;32.90;24.50;;;;;;;18.72;100.00;99430.02;106355;1263;99681;-87
2023/08/30 03:46:26;;;;;;;30.80;25.10;;;;;;;18.70;100.00;99431.97;105903;1268;98055;-86
2023/08/30 03:49:12;;;;;;;38.20;25.80;;;;;;;18.69;100.00;99433.91;106209;1261;98395;-86
2023/08/30 03:51:58;;;;;;;36.40;26.50;;;;;;;18.69;100.00;99431.81;106126;1261;101417;-88
2023/08/30 03:54:57;;;;;;;;;;;;;;;;;;;;;
2023/08/30 03:57:46;;;;;;;34.30;24.00;;;;;;;18.70;100.00;99434.89;106295;1263;98138;-88
2023/08/30 04:00:32;;;;;;;36.10;24.60;;;;;;;18.69;100.00;99437.56;106280;1267;97976;-87
2023/08/30 04:03:18;;;;;;;33.00;25.10;;;;;;;18.69;100.00;99437.45;106244;1264;98542;-87
2023/08/30 04:06:05;;;;;;;30.90;24.20;;;;;;;18.67;100.00;99439.56;106363;1262;103048;-87
2023/08/30 04:08:51;;;;;;;34.40;24.10;;;;;;;18.65;100.00;99443.20;106254;1260;99212;-87
2023/08/30 04:11:37;;;;;;;32.90;24.40;;;;;;;18.64;100.00;99452.95;106171;1264;99072;-86
2023/08/30 04:14:24;;;;;;;33.90;24.20;;;;;;;18.62;100.00;99464.13;106307;1262;97710;-85
2023/08/30 04:17:09;;;;;;;34.60;24.50;;;;;;;18.64;100.00;99470.91;106168;1261;97976;-85
2023/08/30 04:19:55;;;;;;;35.20;24.90;;;;;;;18.67;100.00;99478.40;106241;1261;101551;-86
2023/08/30 04:22:42;;;;;;;34.70;25.00;;;;;;;18.70;100.00;99486.88;106463;1261;100391;-87
2023/08/30 04:25:28;;;;;;;30.10;22.50;;;;;;;18.72;100.00;99493.61;106276;1269;98625;-86
2023/08/30 04:28:15;;;;;;;34.30;24.80;;;;;;;18.74;100.00;99499.48;106383;1261;97992;-87
2023/08/30 04:31:05;;;;;;;34.70;24.50;;;;;;;18.75;100.00;99499.11;106635;1264;98058;-88
2023/08/30 04:33:55;;;;;;;34.40;24.40;;;;;;;18.75;100.00;99492.59;106399;1261;101239;-87
2023/08/30 04:36:53;;;;;;;29.40;22.60;;;;;;;18.74;100.00;99495.36;106383;1261;99270;-88
2023/08/30 04:39:39;;;;;;;35.20;24.50;;;;;;;18.74;100.00;99496.45;106356;1267;99327;-87
2023/08/30 04:42:26;;;;;;;34.90;23.00;;;;;;;18.77;100.00;99498.78;106324;1267;98579;-87
2023/08/30 04:45:11;;;;;;;34.00;22.90;;;;;;;18.74;100.00;99493.24;106160;1269;97981;-88
2023/08/30 04:47:57;;;;;;;35.00;23.60;;;;;;;18.74;100.00;99494.43;106233;1260;102744;-87
2023/08/30 04:50:45;;;;;;;30.20;21.80;;;;;;;18.74;100.00;99489.94;106241;1261;99114;-86
2023/08/30 04:53:30;;;;;;;29.10;20.50;;;;;;;18.73;100.00;99491.55;105993;1268;98080;-88
2023/08/30 04:56:18;;;;;;;27.10;20.70;;;;;;;18.68;100.00;99495.06;106177;1261;98029;-88
2023/08/30 04:59:04;;;;;;;28.10;20.80;;;;;;;18.63;100.00;99493.73;106057;1261;98413;-87
2023/08/30 05:01:51;;;;;;;27.10;20.40;;;;;;;18.59;100.00;99492.31;106194;1261;101446;-87
2023/08/30 05:04:38;;;;;;;26.20;19.50;;;;;;;18.54;100.00;99495.81;106242;1267;100472;-87
2023/08/30 05:07:25;;;;;;;29.60;20.60;;;;;;;18.53;100.00;99497.98;105981;1260;97829;-86
2023/08/30 05:10:12;;;;;;;27.50;19.30;;;;;;;18.49;100.00;99495.96;106164;1261;97958;-88
2023/08/30 05:12:58;;;;;;;27.50;20.00;;;;;;;18.46;100.00;99490.19;106094;1261;98068;-85
2023/08/30 05:15:44;;;;;;;29.10;20.90;;;;;;;18.41;100.00;99487.59;106149;1261;101502;-86
2023/08/30 05:18:29;;;;;;;28.30;20.80;;;;;;;18.39;100.00;99491.38;106034;1261;100707;-87
2023/08/30 05:21:15;;;;;;;28.20;18.90;;;;;;;18.34;100.00;99495.32;106163;1267;97968;-87
2023/08/30 05:24:02;;;;;;;26.40;17.90;;;;;;;18.32;100.00;99498.73;106124;1261;97892;-87
2023/08/30 05:26:49;;;;;;;23.80;16.80;;;;;;;18.31;100.00;99499.96;106166;1261;95834;-87
2023/08/30 05:29:36;;;;;;;20.40;15.60;;;;;;;18.30;100.00;99494.70;106404;1263;102732;-86
2023/08/30 05:32:22;;;;;;;23.30;16.20;;;;;;;18.30;100.00;99489.71;106100;1260;101664;-87
2023/08/30 05:35:36;;;;;;;20.40;15.50;;;;;;;18.30;100.00;99490.42;106191;1263;99229;-86
2023/08/30 05:38:41;;;;;;;22.70;16.40;;;;;;;18.31;100.00;99490.98;106440;1261;97892;-86
2023/08/30 05:41:44;;;;;;;21.60;16.60;;;;;;;18.31;100.00;99499.65;106392;1266;98007;-86
2023/08/30 05:44:29;;;;;;;24.00;17.70;;;;;;;18.31;100.00;99504.58;106251;1261;102210;-88
2023/08/30 05:47:16;;;;;;;28.30;18.70;;;;;;;18.29;100.00;99503.80;106421;1261;109387;-88
2023/08/30 05:50:03;;;;;;;25.20;18.10;;;;;;;18.29;100.00;99507.22;106250;1267;97938;-86
2023/08/30 05:52:50;;;;;;;31.00;20.50;;;;;;;18.28;100.00;99510.04;106406;1261;98801;-87
2023/08/30 05:55:37;;;;;;;27.60;18.50;;;;;;;18.27;100.00;99513.98;105767;1266;98423;-87
2023/08/30 05:58:24;;;;;;;26.70;18.80;;;;;;;18.25;100.00;99522.54;105727;1261;103521;-87
2023/08/30 06:01:10;;;;;;;23.20;17.30;;;;;;;18.24;100.00;99526.92;105911;1266;100479;-87
2023/08/30 06:03:56;;;;;;;26.30;17.80;;;;;;;18.26;100.00;99531.06;105850;1263;97985;-86
2023/08/30 06:06:42;;;;;;;29.00;18.60;;;;;;;18.27;100.00;99536.81;105940;1267;97973;-87
2023/08/30 06:09:28;;;;;;;23.00;17.20;;;;;;;18.28;100.00;99537.63;105744;1267;98080;-87
2023/08/30 06:12:14;;;;;;;25.20;17.10;;;;;;;18.29;100.00;99538.13;105925;1266;101385;-88
2023/08/30 06:15:00;;;;;;;24.00;17.10;;;;;;;18.29;100.00;99541.38;105906;1261;99177;-87
2023/08/30 06:17:46;;;;;;;23.90;17.50;;;;;;;18.33;100.00;99545.26;105823;1261;98447;-86
2023/08/30 06:20:32;;;;;;;23.20;17.10;;;;;;;18.35;100.00;99548.63;105818;1269;97997;-86
2023/08/30 06:23:19;;;;;;;23.90;15.80;;;;;;;18.36;100.00;99543.75;106069;1261;99823;-87
2023/08/30 06:26:05;;;;;;;22.10;15.90;;;;;;;18.37;100.00;99534.16;105953;1261;102864;-87
2023/08/30 06:28:51;;;;;;;23.50;16.60;;;;;;;18.39;100.00;99531.89;106144;1264;100412;-88
2023/08/30 06:31:39;;;;;;;21.60;15.70;;;;;;;18.41;100.00;99534.29;105950;1260;97975;-87
2023/08/30 06:34:25;;;;;;;24.50;15.80;;;;;;;18.44;100.00;99537.37;105983;1261;98007;-87
2023/08/30 06:37:11;;;;;;;21.30;16.60;;;;;;;18.47;100.00;99544.92;106037;1265;97984;-89
2023/08/30 06:39:57;;;;;;;22.00;16.20;;;;;;;18.50;100.00;99547.81;105936;1267;101433;-87
2023/08/30 06:42:43;;;;;;;26.20;17.60;;;;;;;18.49;100.00;99553.94;106030;1261;99769;-87
2023/08/30 06:45:31;;;;;;;26.80;16.80;;;;;;;18.49;100.00;99555.30;105934;1261;98586;-88
2023/08/30 06:48:17;;;;;;;23.10;16.80;;;;;;;18.51;100.00;99553.04;106248;1261;97884;-87
2023/08/30 06:51:03;;;;;;;19.00;15.60;;;;;;;18.51;100.00;99552.75;105979;1268;97883;-86
2023/08/30 06:53:49;;;;;;;25.10;16.60;;;;;;;18.49;100.00;99555.41;106019;1260;103135;-84
2023/08/30 06:56:35;;;;;;;22.70;16.20;;;;;;;18.48;100.00;99553.62;106007;1265;99234;-83
2023/08/30 06:59:20;;;;;;;21.80;16.50;;;;;;;18.50;100.00;99550.86;106182;1263;99154;-86
2023/08/30 07:02:06;;;;;;;22.70;17.00;;;;;;;18.45;100.00;99550.33;106187;1261;97949;-86
2023/08/30 07:04:52;;;;;;;20.70;17.00;;;;;;;18.43;100.00;99550.89;106227;1265;97968;-88
2023/08/30 07:07:39;;;;;;;20.60;15.70;;;;;;;18.42;100.00;99547.21;106110;1261;101916;-87
2023/08/30 07:10:25;;;;;;;23.50;17.80;;;;;;;18.39;100.00;99546.77;106170;1261;99188;-87
2023/08/30 07:13:11;;;;;;;22.30;16.10;;;;;;;18.37;100.00;99549.29;106390;1260;99189;-88
2023/08/30 07:15:57;;;;;;;23.00;17.00;;;;;;;18.35;100.00;99549.72;106326;1261;97844;-88
2023/08/30 07:18:43;;;;;;;21.60;16.40;;;;;;;18.35;100.00;99553.29;106200;1261;100082;-88
2023/08/30 07:21:29;;;;;;;23.60;16.80;;;;;;;18.33;100.00;99553.66;106203;1261;102669;-86
2023/08/30 07:24:15;;;;;;;22.30;16.20;;;;;;;18.31;100.00;99557.06;106434;1263;99106;-88
2023/08/30 07:27:02;;;;;;;23.70;17.10;;;;;;;18.33;100.00;99562.55;106172;1263;97954;-86
2023/08/30 07:29:48;;;;;;;24.20;17.80;;;;;;;18.33;100.00;99572.15;106220;1261;97946;-86
2023/08/30 07:32:35;;;;;;;28.20;17.10;;;;;;;18.32;100.00;99576.33;106136;1269;98413;-86
2023/08/30 07:35:21;;;;;;;24.00;17.20;;;;;;;18.31;100.00;99570.24;106144;1261;101471;-86
2023/08/30 07:38:06;;;;;;;23.50;16.50;;;;;;;18.34;100.00;99569.83;106522;1261;99183;-88
2023/08/30 07:40:53;;;;;;;24.90;16.90;;;;;;;18.36;100.00;99574.33;106307;1260;97944;-87
2023/08/30 07:43:39;;;;;;;23.80;17.30;;;;;;;18.37;100.00;99574.02;106091;1267;98011;-86
2023/08/30 07:46:30;;;;;;;23.20;17.20;;;;;;;18.39;100.00;99570.55;106215;1261;97924;-86
2023/08/30 07:49:24;;;;;;;22.20;16.40;;;;;;;18.41;100.00;99565.27;106297;1261;101337;-87
2023/08/30 07:52:10;;;;;;;24.80;16.80;;;;;;;18.42;100.00;99566.46;106292;1262;100444;-87
2023/08/30 07:54:56;;;;;;;27.60;17.50;;;;;;;18.44;100.00;99566.60;105954;1269;99126;-86
2023/08/30 07:57:42;;;;;;;23.80;16.70;;;;;;;18.50;100.00;99566.10;106202;1265;97980;-88
2023/08/30 08:00:33;;;;;;;22.20;16.80;;;;;;;18.51;100.00;99558.55;106311;1261;97889;-87
2023/08/30 08:03:22;;;;;;;;;;;;;;;18.48;100.00;99556.27;106185;1260;101438;-87
2023/08/30 08:06:08;;;;;;;24.10;16.90;;;;;;;18.43;100.00;99556.55;106187;1261;99202;-87
2023/08/30 08:08:53;;;;;;;25.70;17.40;;;;;;;18.43;100.00;99554.98;105938;1271;99509;-86
2023/08/30 08:11:43;;;;;;;27.70;17.80;;;;;;;18.47;100.00;99550.73;105994;1260;98028;-85
2023/08/30 08:14:28;;;;;;;23.70;17.20;;;;;;;18.52;100.00;99549.73;105955;1260;97937;-85
2023/08/30 08:17:14;;;;;;;24.20;17.10;;;;;;;18.55;100.00;99546.05;106086;1264;102776;-87
2023/08/30 08:20:00;;;;;;;26.40;16.80;;;;;;;18.56;100.00;99543.67;106288;1263;100007;-85
2023/08/30 08:22:45;;;;;;;26.30;16.90;;;;;;;18.57;100.00;99541.51;106032;1264;99081;-85
2023/08/30 08:25:31;;;;;;;24.50;17.00;;;;;;;18.62;100.00;99546.25;106224;1266;98034;-86
2023/08/30 08:28:17;;;;;;;25.30;16.80;;;;;;;18.68;100.00;99548.63;106214;1261;98437;-87
2023/08/30 08:31:05;;;;;;;23.50;16.40;;;;;;;18.71;100.00;99549.44;106382;1266;101416;-86
2023/08/30 08:34:17;;;;;;;22.60;15.90;;;;;;;18.74;100.00;99545.39;106218;1260;99111;-88
2023/08/30 08:37:03;;;;;;;21.40;14.70;;;;;;;18.74;100.00;99550.05;106132;1264;97857;-87
2023/08/30 08:39:50;;;;;;;24.30;15.60;;;;;;;18.80;100.00;99553.93;106220;1266;97912;-86
2023/08/30 08:42:37;;;;;;;23.40;15.00;;;;;;;18.86;100.00;99553.52;105893;1261;98452;-87
2023/08/30 08:45:23;;;;;;;23.90;15.90;;;;;;;18.90;100.00;99551.80;106190;1263;101435;-89
2023/08/30 08:48:10;;;;;;;23.50;15.90;;;;;;;18.92;100.00;99554.14;106064;1267;99165;-88
2023/08/30 08:50:57;;;;;;;22.70;16.00;;;;;;;18.97;100.00;99555.23;105869;1270;97877;-88
2023/08/30 08:53:44;;;;;;;22.30;14.60;;;;;;;18.99;100.00;99555.84;105949;1267;97905;-87
2023/08/30 08:56:33;;;;;;;23.10;14.70;;;;;;;19.01;100.00;99557.42;106203;1267;98557;-88
2023/08/30 08:59:21;;;;;;;23.60;16.10;;;;;;;19.03;100.00;99562.26;106223;1266;101598;-87
2023/08/30 09:02:11;;;;;;;21.60;14.60;;;;;;;19.04;100.00;99565.30;106208;1267;100531;-87
2023/08/30 09:04:59;;;;;;;21.60;14.30;;;;;;;19.04;100.00;99565.85;106166;1266;98255;-89
2023/08/30 09:07:46;;;;;;;20.30;14.20;;;;;;;19.04;100.00;99566.33;106266;1262;97946;-89
2023/08/30 09:10:33;;;;;;;19.20;12.90;;;;;;;19.01;100.00;99566.86;106072;1263;98426;-87
2023/08/30 09:13:20;;;;;;;19.20;14.20;;;;;;;18.97;100.00;99567.92;106201;1265;101456;-86
2023/08/30 09:16:14;;;;;;;17.20;12.50;;;;;;;18.93;100.00;99564.99;105958;1269;100590;-86
2023/08/30 09:19:04;;;;;;;19.80;14.00;;;;;;;18.94;100.00;99565.70;106192;1264;99095;-87
2023/08/30 09:21:54;;;;;;;20.90;13.20;;;;;;;18.97;100.00;99566.03;106144;1265;97973;-85
2023/08/30 09:24:41;;;;;;;19.10;13.50;;;;;;;18.99;100.00;99566.15;106042;1267;97997;-85
2023/08/30 09:27:33;;;;;;;18.10;13.50;;;;;;;18.98;100.00;99568.54;106064;1266;103175;-85
2023/08/30 09:30:23;;;;;;;21.30;13.50;;;;;;;18.99;100.00;99572.17;106031;1261;99219;-85
2023/08/30 09:33:09;;;;;;;19.50;13.00;;;;;;;19.02;100.00;99570.45;105908;1262;99159;-87
2023/08/30 09:35:55;;;;;;;20.40;13.30;;;;;;;19.06;100.00;99571.77;105752;1261;98072;-85
2023/08/30 09:38:47;;;;;;;19.50;13.00;;;;;;;19.08;100.00;99568.46;106143;1266;98439;-87
2023/08/30 09:41:33;;;;;;;18.30;13.30;;;;;;;19.09;100.00;99568.04;105986;1267;101434;-86
2023/08/30 09:44:20;;;;;;;16.90;11.70;;;;;;;19.13;100.00;99568.73;105769;1274;99332;-86
2023/08/30 09:47:06;;;;;;;18.30;12.00;;;;;;;19.15;100.00;99567.45;105831;1261;98493;-84
2023/08/30 09:49:54;;;;;;;18.00;11.20;;;;;;;19.15;100.00;99564.20;105965;1266;97968;-87
2023/08/30 09:52:41;;;;;;;15.60;10.90;;;;;;;19.14;100.00;99567.13;106051;1261;97861;-87
2023/08/30 09:55:27;;;;;;;16.90;11.50;;;;;;;19.13;100.00;99566.73;105915;1260;101566;-85
2023/08/30 09:58:13;;;;;;;17.70;12.20;;;;;;;19.11;100.00;99565.98;105740;1267;99189;-87
2023/08/30 10:01:02;;;;;;;16.10;10.90;;;;;;;19.10;100.00;99565.15;106115;1260;99059;-84
2023/08/30 10:03:48;;;;;;;15.20;10.70;;;;;;;19.08;100.00;99563.25;106049;1261;98045;-87
2023/08/30 10:06:35;;;;;;;14.50;11.00;;;;;;;19.04;100.00;99559.27;105919;1266;97988;-87
2023/08/30 10:09:22;;;;;;;12.50;9.30;;;;;;;19.01;100.00;99561.60;106021;1261;102738;-87
2023/08/30 10:12:07;;;;;;;14.10;10.40;;;;;;;18.97;100.00;99561.96;105751;1264;100478;-86
2023/08/30 10:14:53;;;;;;;12.80;9.80;;;;;;;18.94;100.00;99562.49;105784;1261;98561;-87
2023/08/30 10:17:43;;;;;;;14.90;10.70;;;;;;;18.92;100.00;99560.38;105949;1267;97995;-87
2023/08/30 10:20:29;;;;;;;13.60;10.60;;;;;;;18.92;100.00;99560.38;106063;1260;98017;-85
2023/08/30 10:23:18;;;;;;;12.60;10.10;;;;;;;18.91;100.00;99562.76;105910;1260;101437;-85
2023/08/30 10:26:06;;;;;;;14.30;10.10;;;;;;;18.93;100.00;99562.65;105911;1261;99142;-86
2023/08/30 10:28:57;;;;;;;14.70;10.10;;;;;;;18.93;100.00;99556.64;105771;1266;98058;-87
2023/08/30 10:31:43;;;;;;;13.70;10.40;;;;;;;18.94;100.00;99553.00;105960;1264;97994;-87
2023/08/30 10:34:35;;;;;;;13.70;10.40;;;;;;;18.97;100.00;99549.97;106001;1266;98498;-86
2023/08/30 10:37:26;;;;;;;14.90;10.30;;;;;;;18.98;100.00;99550.20;105909;1266;102672;-87
2023/08/30 10:40:12;;;;;;;13.00;10.30;;;;;;;18.99;100.00;99554.98;105921;1267;99164;-84
2023/08/30 10:43:03;;;;;;;14.30;10.50;;;;;;;19.00;100.00;99557.15;105882;1260;97987;-87
2023/08/30 10:45:59;;;;;;;12.60;10.70;;;;;;;19.04;100.00;99561.50;105920;1261;97894;-86
2023/08/30 10:48:45;;;;;;;14.00;10.80;;;;;;;19.07;100.00;99557.06;105978;1266;99387;-86
2023/08/30 10:51:41;;;;;;;15.10;11.60;;;;;;;19.12;100.00;99560.77;105922;1264;101434;-87
2023/08/30 10:54:37;;;;;;;11.90;10.20;;;;;;;19.14;100.00;99561.52;105810;1267;99851;-87
2023/08/30 10:57:25;;;;;;;12.80;10.80;;;;;;;19.11;100.00;99562.56;105843;1265;97887;-85
2023/08/30 11:00:17;;;;;;;12.80;10.40;;;;;;;19.15;100.00;99561.05;105682;1269;97967;-86
2023/08/30 11:03:03;;;;;;;13.00;10.90;;;;;;;19.20;100.00;99563.89;105932;1266;98658;-86
2023/08/30 11:05:49;;;;;;;13.00;10.60;;;;;;;19.25;100.00;99561.08;105872;1260;102714;-85
2023/08/30 11:08:35;;;;;;;11.70;9.30;;;;;;;19.29;100.00;99557.45;105865;1266;99178;-85
2023/08/30 11:11:21;;;;;;;14.50;10.50;;;;;;;19.31;100.00;99560.39;105970;1261;98793;-85
2023/08/30 11:14:08;;;;;;;12.30;9.80;;;;;;;19.39;100.00;99560.69;106027;1264;97943;-86
2023/08/30 11:16:55;;;;;;;12.50;9.00;;;;;;;19.42;100.00;99560.11;106050;1260;95964;-85
2023/08/30 11:19:40;;;;;;;12.50;9.10;;;;;;;19.45;100.00;99555.55;106002;1266;102274;-85
2023/08/30 11:22:28;;;;;;;8.90;7.80;;;;;;;19.45;100.00;99552.71;105735;1264;99188;-85
2023/08/30 11:25:16;;;;;;;11.60;8.60;;;;;;;19.48;100.00;99547.98;105884;1267;97983;-86
2023/08/30 11:28:03;;;;;;;10.40;9.00;;;;;;;19.47;100.00;99551.04;105907;1268;98644;-85
2023/08/30 11:30:51;;;;;;;13.30;9.30;;;;;;;19.45;100.00;99557.50;105937;1260;98401;-85
2023/08/30 11:33:37;;;;;;;9.40;7.70;;;;;;;19.48;100.00;99553.38;106030;1264;101431;-84
2023/08/30 11:36:26;;;;;;;9.00;7.90;;;;;;;19.49;100.00;99554.40;106064;1264;99214;-85
2023/08/30 11:39:13;;;;;;;8.90;7.50;;;;;;;19.49;100.00;99552.77;106018;1266;97931;-86
2023/08/30 11:41:59;;;;;;;10.10;7.10;;;;;;;19.50;100.00;99553.55;106167;1270;98270;-86
2023/08/30 11:44:46;;;;;;;8.70;6.80;;;;;;;19.49;100.00;99552.67;106098;1264;98503;-85
2023/08/30 11:47:32;;;;;;;8.20;6.60;;;;;;;19.51;100.00;99552.78;105965;1269;102041;-87
2023/08/30 11:50:20;;;;;;;7.30;6.40;;;;;;;19.49;100.00;99554.14;105897;1264;100417;-86
2023/08/30 11:53:10;;;;;;;8.70;6.90;;;;;;;19.48;100.00;99558.42;105630;1260;98153;-86
2023/08/30 11:56:00;;;;;;;8.80;7.20;;;;;;;19.44;100.00;99558.31;105859;1266;98032;-85
2023/08/30 11:58:46;;;;;;;10.80;7.80;;;;;;;19.44;100.00;99558.27;105801;1267;98490;-85
2023/08/30 12:01:46;;;;;;;9.10;8.20;;;;;;;19.47;100.00;99560.55;105991;1266;101423;-90
2023/08/30 12:04:32;;;;;;;7.90;6.90;;;;;;;19.50;100.00;99562.30;105725;1264;99247;-87
2023/08/30 12:07:25;;;;;;;8.80;6.90;;;;;;;19.52;100.00;99559.23;105919;1261;98970;-81
2023/08/30 12:10:11;;;;;;;8.00;6.80;;;;;;;19.52;100.00;99559.84;106025;1263;97953;-82
2023/08/30 12:12:56;;;;;;;7.70;6.40;;;;;;;19.54;100.00;99562.18;105855;1266;98087;-81
2023/08/30 12:15:42;;;;;;;8.30;7.00;;;;;;;19.58;100.00;99571.38;105876;1261;101392;-82
2023/08/30 12:18:34;;;;;;;7.90;6.00;;;;;;;19.59;100.00;99570.94;105942;1263;100506;-82
2023/08/30 12:21:20;;;;;;;7.70;6.30;;;;;;;19.58;100.00;99570.34;105966;1266;99526;-89
2023/08/30 12:24:06;;;;;;;7.80;6.80;;;;;;;19.56;100.00;99570.99;105831;1261;97910;-86
2023/08/30 12:26:51;;;;;;;10.50;7.30;;;;;;;19.55;100.00;99570.02;105782;1261;97876;-84
2023/08/30 12:29:37;;;;;;;7.80;7.00;;;;;;;19.53;100.00;99571.86;105762;1264;101488;-84
2023/08/30 12:32:23;;;;;;;8.50;6.50;;;;;;;19.52;100.00;99570.44;105684;1270;100252;-84